»·PEaware :: KLM243 RCTP-EHAM

KLM243 :: RCTP-EHAM

FLIGHT INFORMATION

Flight Status: Arrived
Operator:
KLM
More flights by this operator :: More flights under this callsign
Pilot: Tatianna C. (7783)
Aircraft: BOEING 747-400 (WINGLETS)
(B744)
More flights by this aircraft type
Origin: RCTP Chiang Kai Shek Intl
Taiwan
Destination: EHAM Schiphol
Netherlands
More flights between these airports :: More routes between these airports
Route: PA1A PIANO DST HGH W554 DOGVI A470 DPX A593 DALIM W142 YQG V31 LADIX B339 POLHO Y520 SERNA/K0898F302 A822 LONKA R497 TODES B228 HMN R22 BUKET AKADA A834 VESUR R902 AGBON G445 SPB B141 RANVA/N0486F302 P863 KOTAM L990 MARIP Z701 GOBOT UZ701 EEL EEL1A
File this flight plan on PilotEdge
Remarks:
Altitude:
(Current/Filed)
30,200ft
Speed:
(Current/Filed)
526kts
Departed: 15-Jan-18 12:01 AM
Arrived: 15-Jan-18 11:37 AM
Distance/Time
Traveled:
5095nm/11:36
Distance/Time
To Go:
Arrived

Flight Plot

Page will automatically refresh every two minutes.

Flight plan parsing failed; only flown route is shown


Map Options




Map Legend


Flown Route
Filed Route
Departure Airport
Arrival Airport
Navaid (VOR, NDB)
Fix

Horizontal Profiles

Position Reports

Time Latitude Longitude Heading Altitude Ground
Speed
14-Jan-18 23:47 25.071248 121.231605 139 119ft 0kts
14-Jan-18 23:48 25.071248 121.231605 139 119ft 0kts
14-Jan-18 23:49 25.071248 121.231605 139 119ft 0kts
14-Jan-18 23:50 25.071248 121.231605 139 119ft 0kts
14-Jan-18 23:51 25.071248 121.231605 139 119ft 0kts
14-Jan-18 23:52 25.071248 121.231605 139 119ft 0kts
14-Jan-18 23:53 25.071248 121.231605 139 119ft 0kts
14-Jan-18 23:54 25.071248 121.231605 139 119ft 0kts
14-Jan-18 23:55 25.071248 121.231605 139 119ft 0kts
14-Jan-18 23:56 25.071248 121.231605 139 119ft 0kts
14-Jan-18 23:57 25.071248 121.231605 139 119ft 0kts
14-Jan-18 23:58 25.071248 121.231605 139 119ft 0kts
14-Jan-18 23:59 25.071248 121.231605 139 119ft 0kts
15-Jan-18 00:00 25.071248 121.231605 139 119ft 0kts
15-Jan-18 00:01 25.071248 121.231605 139 119ft 0kts
15-Jan-18 00:02 25.071248 121.231605 139 119ft 0kts
15-Jan-18 00:03 25.071247 121.231606 139 119ft 0kts
15-Jan-18 00:04 25.068664 121.229794 225 119ft 26kts
15-Jan-18 00:05 25.063451 121.223344 223 119ft 13kts
15-Jan-18 00:06 25.062182 121.224967 47 119ft 0kts
15-Jan-18 00:07 25.063282 121.226342 49 120ft 56kts
15-Jan-18 00:08 25.090887 121.262817 48 1645ft 190kts
15-Jan-18 00:09 25.134740 121.305010 21 2744ft 244kts
15-Jan-18 00:10 25.208940 121.307688 355 4325ft 289kts
15-Jan-18 00:11 25.292599 121.295192 353 6620ft 314kts
15-Jan-18 00:12 25.381284 121.291222 23 8925ft 330kts
15-Jan-18 00:13 25.451754 121.360279 49 10568ft 368kts
15-Jan-18 00:14 25.524747 121.455772 49 11457ft 436kts
15-Jan-18 00:15 25.605730 121.559645 47 13771ft 457kts
15-Jan-18 00:16 25.690942 121.668662 46 15752ft 479kts
15-Jan-18 00:17 25.788138 121.768090 16 17439ft 479kts
15-Jan-18 00:18 25.913003 121.754991 330 19181ft 453kts
15-Jan-18 00:19 26.023902 121.687919 324 20849ft 456kts
15-Jan-18 00:20 26.135521 121.619630 325 22368ft 461kts
15-Jan-18 00:21 26.248942 121.551173 324 23619ft 466kts
15-Jan-18 00:22 26.363999 121.481557 324 24558ft 473kts
15-Jan-18 00:23 26.480015 121.411194 324 25570ft 475kts
15-Jan-18 00:24 26.595586 121.340943 324 26920ft 469kts
15-Jan-18 00:25 26.709490 121.271544 323 28251ft 463kts
15-Jan-18 00:26 26.821797 121.202959 323 29585ft 456kts
15-Jan-18 00:27 26.933147 121.134809 323 30335ft 454kts
15-Jan-18 00:28 27.043675 121.067004 323 30338ft 453kts
15-Jan-18 00:29 27.153918 120.999222 323 30343ft 452kts
15-Jan-18 00:30 27.264245 120.931234 322 30347ft 451kts
15-Jan-18 00:31 27.373956 120.863472 322 30351ft 450kts
15-Jan-18 00:32 27.483834 120.795531 322 30354ft 449kts
15-Jan-18 00:33 27.593095 120.727767 322 30358ft 448kts
15-Jan-18 00:34 27.702064 120.659894 322 30362ft 447kts
15-Jan-18 00:35 27.826694 120.623868 344 30365ft 482kts
15-Jan-18 00:36 27.961065 120.615636 345 30369ft 485kts
15-Jan-18 00:37 28.095568 120.606890 344 30372ft 480kts
15-Jan-18 00:38 28.228710 120.598031 344 30376ft 480kts
15-Jan-18 00:39 28.361905 120.589096 344 30379ft 480kts
15-Jan-18 00:40 28.495401 120.580126 344 30375ft 478kts
15-Jan-18 00:41 28.628426 120.570952 344 30399ft 476kts
15-Jan-18 00:42 28.760544 120.562132 344 30395ft 477kts
15-Jan-18 00:43 28.893425 120.553054 344 30367ft 474kts
15-Jan-18 00:44 29.024693 120.544256 343 30356ft 474kts
15-Jan-18 00:45 29.156318 120.535271 344 30383ft 475kts
15-Jan-18 00:46 29.286971 120.526305 343 30401ft 470kts
15-Jan-18 00:47 29.417950 120.517356 343 30397ft 471kts
15-Jan-18 00:48 29.548857 120.508332 343 30398ft 469kts
15-Jan-18 00:49 29.679098 120.499398 343 30394ft 469kts
15-Jan-18 00:50 29.809611 120.490363 342 30404ft 470kts
15-Jan-18 00:51 29.940215 120.481280 343 30405ft 471kts
15-Jan-18 00:52 30.070012 120.472332 342 30398ft 465kts
15-Jan-18 00:53 30.199018 120.460310 329 30396ft 434kts
15-Jan-18 00:54 30.284840 120.380790 298 30394ft 392kts
15-Jan-18 00:55 30.342521 120.273411 305 30410ft 400kts
15-Jan-18 00:56 30.432089 120.190499 313 30405ft 416kts
15-Jan-18 00:57 30.524400 120.112192 314 30411ft 414kts
15-Jan-18 00:58 30.617277 120.033960 314 30406ft 412kts
15-Jan-18 00:59 30.710112 119.955312 313 30410ft 413kts
15-Jan-18 01:00 30.802380 119.876313 313 30397ft 410kts
15-Jan-18 01:01 30.894468 119.797153 313 30428ft 409kts
15-Jan-18 01:02 30.986283 119.718206 313 30375ft 413kts
15-Jan-18 01:03 31.077699 119.638974 312 30389ft 408kts
15-Jan-18 01:04 31.169442 119.559070 313 30404ft 413kts
15-Jan-18 01:05 31.261411 119.479240 313 30389ft 409kts
15-Jan-18 01:06 31.352679 119.399996 313 30425ft 410kts
15-Jan-18 01:07 31.444070 119.320400 313 30407ft 410kts
15-Jan-18 01:08 31.534981 119.240672 312 30408ft 404kts
15-Jan-18 01:09 31.625685 119.160656 312 30380ft 407kts
15-Jan-18 01:10 31.711725 119.075784 309 30409ft 402kts
15-Jan-18 01:11 31.795788 118.988561 309 30396ft 402kts
15-Jan-18 01:12 31.900437 118.925982 326 30405ft 433kts
15-Jan-18 01:13 32.012806 118.876792 326 30412ft 433kts
15-Jan-18 01:14 32.125726 118.826125 326 30404ft 433kts
15-Jan-18 01:15 32.239103 118.775229 326 30391ft 438kts
15-Jan-18 01:16 32.352436 118.723885 326 30406ft 435kts
15-Jan-18 01:17 32.466216 118.672641 326 30374ft 433kts
15-Jan-18 01:18 32.579223 118.621181 326 30375ft 439kts
15-Jan-18 01:19 32.692417 118.570668 329 30382ft 443kts
15-Jan-18 01:20 32.812366 118.528866 330 30379ft 443kts
15-Jan-18 01:21 32.930539 118.486940 331 30381ft 448kts
15-Jan-18 01:22 33.049432 118.444533 331 30425ft 446kts
15-Jan-18 01:23 33.168573 118.401675 331 30391ft 445kts
15-Jan-18 01:24 33.287757 118.358878 332 30396ft 448kts
15-Jan-18 01:25 33.407312 118.315702 332 30409ft 451kts
15-Jan-18 01:26 33.527621 118.272252 332 30400ft 453kts
15-Jan-18 01:27 33.647505 118.228829 332 30369ft 454kts
15-Jan-18 01:28 33.768569 118.184721 332 30364ft 457kts
15-Jan-18 01:29 33.888944 118.140553 332 30387ft 454kts
15-Jan-18 01:30 34.009959 118.095913 332 30394ft 453kts
15-Jan-18 01:31 34.130540 118.052293 332 30404ft 452kts
15-Jan-18 01:32 34.251197 118.008275 332 30414ft 454kts
15-Jan-18 01:33 34.372706 117.964638 332 30421ft 451kts
15-Jan-18 01:34 34.493887 117.921569 333 30408ft 459kts
15-Jan-18 01:35 34.615181 117.878325 333 30413ft 454kts
15-Jan-18 01:36 34.736842 117.834570 332 30402ft 455kts
15-Jan-18 01:37 34.857955 117.791375 333 30415ft 457kts
15-Jan-18 01:38 34.979128 117.746814 333 30425ft 454kts
15-Jan-18 01:39 35.100510 117.702154 333 30432ft 455kts
15-Jan-18 01:40 35.221602 117.657569 333 30440ft 454kts
15-Jan-18 01:41 35.343025 117.612780 333 30421ft 456kts
15-Jan-18 01:42 35.464237 117.568065 334 30433ft 455kts
15-Jan-18 01:43 35.585375 117.523195 334 30435ft 455kts
15-Jan-18 01:44 35.706908 117.478049 334 30437ft 455kts
15-Jan-18 01:45 35.827993 117.432889 334 30445ft 455kts
15-Jan-18 01:46 35.949101 117.387458 334 30446ft 455kts
15-Jan-18 01:47 36.071078 117.342106 334 30436ft 460kts
15-Jan-18 01:48 36.193668 117.296931 334 30441ft 460kts
15-Jan-18 01:49 36.316744 117.251189 334 30442ft 461kts
15-Jan-18 01:50 36.441909 117.213439 346 30442ft 475kts
15-Jan-18 01:51 36.576186 117.213734 351 30442ft 486kts
15-Jan-18 01:52 36.689173 117.214412 350 30442ft 485kts
15-Jan-18 01:53 36.846744 117.214260 348 30443ft 485kts
15-Jan-18 01:54 36.980487 117.201156 345 30443ft 482kts
15-Jan-18 01:55 37.114863 117.188231 346 30443ft 484kts
15-Jan-18 01:56 37.226831 117.177490 345 30443ft 485kts
15-Jan-18 01:57 37.361981 117.164495 346 30445ft 487kts
15-Jan-18 01:58 37.497069 117.151568 345 30445ft 488kts
15-Jan-18 01:59 37.654992 117.136371 345 30448ft 488kts
15-Jan-18 02:00 37.768469 117.125479 345 30449ft 490kts
15-Jan-18 02:01 37.904261 117.112366 345 30447ft 489kts
15-Jan-18 02:02 38.039978 117.099221 345 30444ft 491kts
15-Jan-18 02:03 38.176708 117.085906 345 30446ft 492kts
15-Jan-18 02:04 38.312970 117.072589 345 30448ft 491kts
15-Jan-18 02:05 38.449163 117.059229 345 30452ft 491kts
15-Jan-18 02:06 38.585776 117.045777 345 30453ft 491kts
15-Jan-18 02:07 38.721849 117.032326 345 30455ft 490kts
15-Jan-18 02:08 38.857948 117.018857 345 30456ft 489kts
15-Jan-18 02:09 38.993556 117.005333 345 30457ft 489kts
15-Jan-18 02:10 39.128838 116.991664 344 30457ft 486kts
15-Jan-18 02:11 39.261794 116.965733 340 30455ft 480kts
15-Jan-18 02:12 39.393499 116.938912 341 30452ft 479kts
15-Jan-18 02:13 39.525476 116.912376 340 30447ft 479kts
15-Jan-18 02:14 39.656915 116.885882 340 30441ft 477kts
15-Jan-18 02:15 39.787880 116.859338 340 30436ft 477kts
15-Jan-18 02:16 39.919257 116.832602 340 30432ft 477kts
15-Jan-18 02:17 40.050211 116.805922 340 30429ft 476kts
15-Jan-18 02:18 40.180797 116.779116 340 30430ft 475kts
15-Jan-18 02:19 40.311824 116.752096 340 30429ft 475kts
15-Jan-18 02:20 40.444106 116.732543 343 30429ft 482kts
15-Jan-18 02:21 40.577854 116.714798 343 30427ft 481kts
15-Jan-18 02:22 40.710897 116.696796 343 30425ft 481kts
15-Jan-18 02:23 40.844285 116.678666 343 30424ft 482kts
15-Jan-18 02:24 40.978072 116.660422 343 30429ft 482kts
15-Jan-18 02:25 41.111288 116.642090 343 30429ft 481kts
15-Jan-18 02:26 41.240220 116.611592 323 30434ft 448kts
15-Jan-18 02:27 41.345093 116.524518 315 30425ft 440kts
15-Jan-18 02:28 41.444922 116.431182 315 30426ft 438kts
15-Jan-18 02:29 41.545452 116.337987 315 30425ft 439kts
15-Jan-18 02:30 41.645647 116.245051 315 30424ft 439kts
15-Jan-18 02:31 41.745956 116.151739 315 30423ft 439kts
15-Jan-18 02:32 41.846061 116.057647 314 30423ft 438kts
15-Jan-18 02:33 41.945719 115.963620 314 30422ft 438kts
15-Jan-18 02:34 42.046083 115.870452 315 30420ft 439kts
15-Jan-18 02:35 42.146783 115.776778 315 30418ft 439kts
15-Jan-18 02:36 42.247064 115.683148 315 30416ft 439kts
15-Jan-18 02:37 42.345993 115.591452 312 30414ft 413kts
15-Jan-18 02:38 42.441681 115.501691 313 30356ft 424kts
15-Jan-18 02:39 42.538536 115.410543 313 30347ft 426kts
15-Jan-18 02:40 42.635863 115.318395 313 30351ft 426kts
15-Jan-18 02:41 42.733109 115.226141 313 30344ft 427kts
15-Jan-18 02:42 42.830436 115.133400 313 30339ft 428kts
15-Jan-18 02:43 42.928369 115.040113 313 30335ft 429kts
15-Jan-18 02:44 43.025827 114.946245 313 30332ft 430kts
15-Jan-18 02:45 43.124144 114.851503 314 30328ft 433kts
15-Jan-18 02:46 43.223794 114.758323 314 30326ft 435kts
15-Jan-18 02:47 43.323570 114.664368 315 30323ft 436kts
15-Jan-18 02:48 43.424055 114.569733 315 30320ft 438kts
15-Jan-18 02:49 43.524683 114.475037 315 30319ft 439kts
15-Jan-18 02:50 43.625772 114.379086 315 30316ft 441kts
15-Jan-18 02:51 43.727040 114.282496 315 30313ft 443kts
15-Jan-18 02:52 43.828467 114.185338 315 30311ft 444kts
15-Jan-18 02:53 43.930356 114.087325 316 30310ft 445kts
15-Jan-18 02:54 44.031885 113.989240 315 30308ft 445kts
15-Jan-18 02:55 44.133320 113.890829 315 30306ft 445kts
15-Jan-18 02:56 44.235043 113.791714 315 30305ft 445kts
15-Jan-18 02:57 44.336464 113.692467 316 30306ft 446kts
15-Jan-18 02:58 44.438199 113.592481 316 30305ft 446kts
15-Jan-18 02:59 44.539682 113.492586 316 30298ft 447kts
15-Jan-18 03:00 44.641308 113.391901 316 30285ft 448kts
15-Jan-18 03:01 44.743093 113.290258 316 30261ft 448kts
15-Jan-18 03:02 44.843271 113.186235 315 30250ft 448kts
15-Jan-18 03:03 44.941864 113.079594 315 30247ft 447kts
15-Jan-18 03:04 45.040917 112.972211 315 30244ft 448kts
15-Jan-18 03:05 45.140062 112.865558 315 30242ft 448kts
15-Jan-18 03:06 45.239359 112.757697 315 30239ft 448kts
15-Jan-18 03:07 45.338134 112.649742 316 30236ft 448kts
15-Jan-18 03:08 45.436808 112.541383 316 30233ft 449kts
15-Jan-18 03:09 45.535820 112.432154 316 30230ft 449kts
15-Jan-18 03:10 45.634484 112.322814 316 30228ft 450kts
15-Jan-18 03:11 45.733108 112.213011 316 30225ft 450kts
15-Jan-18 03:12 45.832023 112.102376 317 30223ft 450kts
15-Jan-18 03:13 45.930499 111.991720 317 30219ft 450kts
15-Jan-18 03:14 46.029439 111.880565 316 30216ft 450kts
15-Jan-18 03:15 46.127564 111.768901 316 30213ft 449kts
15-Jan-18 03:16 46.225557 111.657029 317 30211ft 449kts
15-Jan-18 03:17 46.323536 111.544247 317 30190ft 449kts
15-Jan-18 03:18 46.420880 111.431487 317 30188ft 448kts
15-Jan-18 03:19 46.518412 111.318879 317 30187ft 448kts
15-Jan-18 03:20 46.616175 111.205633 317 30186ft 448kts
15-Jan-18 03:21 46.713241 111.092228 317 30184ft 447kts
15-Jan-18 03:22 46.810317 110.978204 317 30183ft 447kts
15-Jan-18 03:23 46.906913 110.864190 317 30182ft 446kts
15-Jan-18 03:24 47.003226 110.749964 318 30179ft 446kts
15-Jan-18 03:25 47.099696 110.635004 318 30178ft 445kts
15-Jan-18 03:26 47.195631 110.520127 318 30178ft 445kts
15-Jan-18 03:27 47.291355 110.404950 318 30175ft 445kts
15-Jan-18 03:28 47.387249 110.289011 318 30174ft 444kts
15-Jan-18 03:29 47.482586 110.173182 318 30173ft 444kts
15-Jan-18 03:30 47.578050 110.056635 318 30172ft 443kts
15-Jan-18 03:31 47.673117 109.940443 318 30171ft 443kts
15-Jan-18 03:32 47.767747 109.823800 318 30170ft 442kts
15-Jan-18 03:33 47.862439 109.706092 318 30169ft 442kts
15-Jan-18 03:34 47.956908 109.588756 318 30169ft 442kts
15-Jan-18 03:35 48.051510 109.470541 318 30169ft 442kts
15-Jan-18 03:36 48.145453 109.352257 318 30169ft 442kts
15-Jan-18 03:37 48.239134 109.233587 318 30169ft 440kts
15-Jan-18 03:38 48.333128 109.114982 318 30168ft 440kts
15-Jan-18 03:39 48.426607 108.996410 318 30168ft 439kts
15-Jan-18 03:40 48.519608 108.877443 317 30168ft 439kts
15-Jan-18 03:41 48.612758 108.757640 317 30168ft 438kts
15-Jan-18 03:42 48.705273 108.638050 317 30168ft 438kts
15-Jan-18 03:43 48.798162 108.518035 317 30169ft 438kts
15-Jan-18 03:44 48.890248 108.397332 317 30169ft 438kts
15-Jan-18 03:45 48.982314 108.276363 317 30169ft 438kts
15-Jan-18 03:46 49.074565 108.154461 317 30169ft 438kts
15-Jan-18 03:47 49.166343 108.032359 316 30170ft 438kts
15-Jan-18 03:48 49.258168 107.910557 317 30170ft 436kts
15-Jan-18 03:49 49.350101 107.788358 316 30172ft 437kts
15-Jan-18 03:50 49.441464 107.665691 316 30172ft 437kts
15-Jan-18 03:51 49.532946 107.542145 316 30173ft 437kts
15-Jan-18 03:52 49.624051 107.418457 316 30172ft 437kts
15-Jan-18 03:53 49.715018 107.294309 316 30162ft 437kts
15-Jan-18 03:54 49.806167 107.169263 315 30162ft 436kts
15-Jan-18 03:55 49.896756 107.044333 315 30163ft 436kts
15-Jan-18 03:56 49.987184 106.918968 315 30161ft 436kts
15-Jan-18 03:57 50.077614 106.793162 315 30161ft 434kts
15-Jan-18 03:58 50.167414 106.667786 314 30161ft 434kts
15-Jan-18 03:59 50.257092 106.540963 314 30160ft 434kts
15-Jan-18 04:00 50.342474 106.408450 307 30159ft 432kts
15-Jan-18 04:01 50.419128 106.264671 306 30158ft 430kts
15-Jan-18 04:02 50.496390 106.120823 306 30156ft 430kts
15-Jan-18 04:03 50.573900 105.977767 307 30153ft 430kts
15-Jan-18 04:04 50.651387 105.833671 307 30150ft 430kts
15-Jan-18 04:05 50.728389 105.689736 306 30147ft 429kts
15-Jan-18 04:06 50.804666 105.544917 305 30143ft 429kts
15-Jan-18 04:07 50.881350 105.399722 306 30139ft 429kts
15-Jan-18 04:08 50.957420 105.254487 305 30133ft 429kts
15-Jan-18 04:09 51.032993 105.108582 305 30128ft 428kts
15-Jan-18 04:10 51.108993 104.962154 305 30122ft 428kts
15-Jan-18 04:11 51.171575 104.839929 304 30117ft 428kts
15-Jan-18 04:12 51.259096 104.668495 304 30109ft 427kts
15-Jan-18 04:13 51.321609 104.545218 304 30105ft 427kts
15-Jan-18 04:14 51.395886 104.397606 304 30100ft 426kts
15-Jan-18 04:15 51.470159 104.249270 304 30079ft 425kts
15-Jan-18 04:16 51.544835 104.102490 303 30078ft 424kts
15-Jan-18 04:17 51.618217 103.954136 303 30077ft 424kts
15-Jan-18 04:18 51.691938 103.805186 303 30076ft 424kts
15-Jan-18 04:19 51.765234 103.656268 303 30077ft 424kts
15-Jan-18 04:20 51.838020 103.506427 303 30077ft 425kts
15-Jan-18 04:21 51.911182 103.355570 302 30084ft 425kts
15-Jan-18 04:22 51.983920 103.204285 302 30084ft 426kts
15-Jan-18 04:23 52.056157 103.052401 301 30085ft 421kts
15-Jan-18 04:24 52.127510 102.901170 301 30086ft 423kts
15-Jan-18 04:25 52.199490 102.749838 301 30087ft 423kts
15-Jan-18 04:26 52.271700 102.597504 301 30088ft 424kts
15-Jan-18 04:27 52.343243 102.444695 301 30052ft 424kts
15-Jan-18 04:28 52.414560 102.291252 301 30052ft 424kts
15-Jan-18 04:29 52.485873 102.136855 300 30054ft 424kts
15-Jan-18 04:30 52.556732 101.982490 300 30053ft 424kts
15-Jan-18 04:31 52.627641 101.827075 300 30052ft 423kts
15-Jan-18 04:32 52.698068 101.671775 300 30057ft 423kts
15-Jan-18 04:33 52.768071 101.516459 300 30066ft 422kts
15-Jan-18 04:34 52.838066 101.360211 300 30068ft 421kts
15-Jan-18 04:35 52.907440 101.204390 300 30071ft 420kts
15-Jan-18 04:36 52.976587 101.048122 300 30073ft 421kts
15-Jan-18 04:37 53.045692 100.890981 300 30076ft 420kts
15-Jan-18 04:38 53.114312 100.733975 300 30078ft 420kts
15-Jan-18 04:39 53.182944 100.575959 300 30080ft 420kts
15-Jan-18 04:40 53.251130 100.417988 299 30083ft 420kts
15-Jan-18 04:41 53.319014 100.259730 299 30086ft 419kts
15-Jan-18 04:42 53.386815 100.100666 299 30089ft 418kts
15-Jan-18 04:43 53.453936 99.942206 299 30091ft 417kts
15-Jan-18 04:44 53.521125 99.782583 299 30093ft 417kts
15-Jan-18 04:45 53.587780 99.623220 299 30096ft 417kts
15-Jan-18 04:46 53.654294 99.463186 299 30099ft 418kts
15-Jan-18 04:47 53.720894 99.301923 299 30103ft 418kts
15-Jan-18 04:48 53.787127 99.140501 299 30106ft 418kts
15-Jan-18 04:49 53.853225 98.978371 299 30109ft 419kts
15-Jan-18 04:50 53.919414 98.814962 299 30112ft 420kts
15-Jan-18 04:51 53.985237 98.651393 299 30132ft 419kts
15-Jan-18 04:52 54.050956 98.487007 299 30159ft 422kts
15-Jan-18 04:53 54.116741 98.321372 299 30163ft 420kts
15-Jan-18 04:54 54.182049 98.155841 298 30169ft 421kts
15-Jan-18 04:55 54.247316 97.989311 298 30175ft 421kts
15-Jan-18 04:56 54.312146 97.822784 298 30180ft 421kts
15-Jan-18 04:57 54.376881 97.655378 298 30190ft 422kts
15-Jan-18 04:58 54.441801 97.486364 299 30196ft 424kts
15-Jan-18 04:59 54.506531 97.316688 299 30202ft 426kts
15-Jan-18 05:01 54.636682 96.973641 299 30214ft 428kts
15-Jan-18 05:02 54.701036 96.800256 299 30220ft 430kts
15-Jan-18 05:03 54.764028 96.624027 295 30230ft 429kts
15-Jan-18 05:04 54.817773 96.439731 294 30232ft 429kts
15-Jan-18 05:05 54.871433 96.255054 294 30239ft 429kts
15-Jan-18 05:06 54.925850 96.069584 295 30245ft 430kts
15-Jan-18 05:07 54.980281 95.884120 294 30250ft 432kts
15-Jan-18 05:08 55.034262 95.696779 294 30255ft 433kts
15-Jan-18 05:09 55.088080 95.508269 294 30260ft 433kts
15-Jan-18 05:10 55.141983 95.319913 295 30265ft 434kts
15-Jan-18 05:11 55.195297 95.129666 294 30269ft 435kts
15-Jan-18 05:12 55.247992 94.939121 294 30272ft 435kts
15-Jan-18 05:13 55.305996 94.752661 299 30275ft 437kts
15-Jan-18 05:14 55.367476 94.567712 298 30274ft 438kts
15-Jan-18 05:15 55.428247 94.382029 298 30279ft 439kts
15-Jan-18 05:16 55.490091 94.196004 299 30280ft 439kts
15-Jan-18 05:17 55.550987 94.008939 299 30281ft 440kts
15-Jan-18 05:18 55.611911 93.821865 300 30283ft 439kts
15-Jan-18 05:19 55.672035 93.633092 299 30282ft 439kts
15-Jan-18 05:20 55.731605 93.444116 299 30283ft 439kts
15-Jan-18 05:21 55.790102 93.254065 299 30263ft 439kts
15-Jan-18 05:22 55.848335 93.061804 299 30326ft 442kts
15-Jan-18 05:23 55.905989 92.875270 299 30282ft 427kts
15-Jan-18 05:24 55.962702 92.684858 299 30282ft 437kts
15-Jan-18 05:25 56.019329 92.493726 300 30282ft 435kts
15-Jan-18 05:26 56.075527 92.302380 299 30282ft 435kts
15-Jan-18 05:27 56.131336 92.109884 299 30282ft 434kts
15-Jan-18 05:28 56.186943 91.917858 300 30283ft 434kts
15-Jan-18 05:29 56.243293 91.726304 299 30283ft 434kts
15-Jan-18 05:30 56.298896 91.532690 299 30283ft 434kts
15-Jan-18 05:31 56.353865 91.339103 299 30281ft 435kts
15-Jan-18 05:32 56.408731 91.144167 299 30281ft 434kts
15-Jan-18 05:33 56.463106 90.949325 299 30281ft 434kts
15-Jan-18 05:34 56.517171 90.753926 300 30282ft 434kts
15-Jan-18 05:35 56.571102 90.557351 299 30283ft 435kts
15-Jan-18 05:36 56.624537 90.360896 299 30284ft 434kts
15-Jan-18 05:37 56.677805 90.163348 299 30286ft 434kts
15-Jan-18 05:38 56.730676 89.965549 299 30287ft 435kts
15-Jan-18 05:39 56.783187 89.767387 299 30289ft 434kts
15-Jan-18 05:40 56.835561 89.567992 299 30290ft 435kts
15-Jan-18 05:41 56.887468 89.368593 299 30293ft 435kts
15-Jan-18 05:42 56.939136 89.168344 299 30295ft 435kts
15-Jan-18 05:43 56.990666 88.966823 298 30297ft 436kts
15-Jan-18 05:44 57.042335 88.765629 299 30298ft 436kts
15-Jan-18 05:45 57.093005 88.562902 298 30311ft 437kts
15-Jan-18 05:46 57.143414 88.358771 298 30313ft 437kts
15-Jan-18 05:47 57.193477 88.154252 298 30331ft 438kts
15-Jan-18 05:48 57.243106 87.948077 297 30339ft 439kts
15-Jan-18 05:49 57.292273 87.741516 297 30338ft 440kts
15-Jan-18 05:50 57.342753 87.535671 298 30337ft 440kts
15-Jan-18 05:51 57.392279 87.327800 297 30335ft 440kts
15-Jan-18 05:52 57.441192 87.119505 297 30334ft 441kts
15-Jan-18 05:53 57.489786 86.910419 297 30332ft 441kts
15-Jan-18 05:54 57.538247 86.699825 297 30329ft 442kts
15-Jan-18 05:55 57.586252 86.489133 297 30327ft 442kts
15-Jan-18 05:56 57.634136 86.276862 296 30324ft 443kts
15-Jan-18 05:57 57.681547 86.064557 296 30321ft 444kts
15-Jan-18 05:58 57.728675 85.851373 296 30336ft 444kts
15-Jan-18 05:59 57.776264 85.637433 296 30333ft 444kts
15-Jan-18 06:00 57.822331 85.422866 296 30330ft 444kts
15-Jan-18 06:01 57.868100 85.207764 296 30328ft 444kts
15-Jan-18 06:02 57.913633 84.991492 296 30325ft 444kts
15-Jan-18 06:03 57.958418 84.775252 296 30321ft 444kts
15-Jan-18 06:04 58.003226 84.558066 297 30317ft 443kts
15-Jan-18 06:05 58.048721 84.342293 296 30313ft 443kts
15-Jan-18 06:06 58.092979 84.125387 296 30308ft 443kts
15-Jan-18 06:07 58.136936 83.906999 296 30303ft 443kts
15-Jan-18 06:08 58.180366 83.688769 296 30298ft 443kts
15-Jan-18 06:09 58.223768 83.470145 297 30291ft 443kts
15-Jan-18 06:10 58.266784 83.250294 296 30285ft 444kts
15-Jan-18 06:11 58.308691 83.030072 296 30278ft 443kts
15-Jan-18 06:12 58.353526 82.811484 299 30270ft 441kts
15-Jan-18 06:13 58.401103 82.596801 298 30258ft 440kts
15-Jan-18 06:14 58.447879 82.381249 298 30245ft 440kts
15-Jan-18 06:15 58.495660 82.165780 299 30236ft 439kts
15-Jan-18 06:16 58.542339 81.949877 298 30226ft 440kts
15-Jan-18 06:17 58.588707 81.732270 299 30215ft 440kts
15-Jan-18 06:18 58.634965 81.515472 298 30204ft 440kts
15-Jan-18 06:19 58.672465 81.333458 298 30195ft 440kts
15-Jan-18 06:20 58.725121 81.077341 298 30181ft 440kts
15-Jan-18 06:21 58.762485 80.894715 299 30171ft 440kts
15-Jan-18 06:22 58.815222 80.639452 298 30157ft 440kts
15-Jan-18 06:23 58.851968 80.454718 298 30146ft 441kts
15-Jan-18 06:24 58.902805 80.196399 297 30131ft 441kts
15-Jan-18 06:25 58.938385 80.010987 297 30121ft 442kts
15-Jan-18 06:26 58.980800 79.787011 297 30108ft 441kts
15-Jan-18 06:27 59.024135 79.563702 298 30075ft 441kts
15-Jan-18 06:28 59.066689 79.340725 297 30062ft 441kts
15-Jan-18 06:29 59.108487 79.116677 297 30055ft 441kts
15-Jan-18 06:30 59.150032 78.891017 297 30043ft 442kts
15-Jan-18 06:31 59.191056 78.665428 297 30033ft 442kts
15-Jan-18 06:32 59.231814 78.438610 297 30023ft 442kts
15-Jan-18 06:33 59.272019 78.212139 297 30014ft 442kts
15-Jan-18 06:34 59.311921 77.984635 297 30004ft 443kts
15-Jan-18 06:35 59.351585 77.755670 297 29996ft 443kts
15-Jan-18 06:36 59.391132 77.527020 297 29988ft 443kts
15-Jan-18 06:37 59.430103 77.297394 296 29981ft 444kts
15-Jan-18 06:38 59.468289 77.065476 296 29974ft 445kts
15-Jan-18 06:39 59.507104 76.834290 296 29966ft 445kts
15-Jan-18 06:40 59.545135 76.601149 296 29960ft 446kts
15-Jan-18 06:41 59.582607 76.367860 295 29970ft 447kts
15-Jan-18 06:42 59.619226 76.133534 295 29970ft 447kts
15-Jan-18 06:43 59.655655 75.897867 295 29970ft 447kts
15-Jan-18 06:44 59.693494 75.663785 294 29971ft 448kts
15-Jan-18 06:45 59.728968 75.426872 294 29973ft 450kts
15-Jan-18 06:46 59.768231 75.191276 299 29975ft 447kts
15-Jan-18 06:47 59.815055 74.963257 298 29977ft 447kts
15-Jan-18 06:48 59.861092 74.732374 298 29980ft 449kts
15-Jan-18 06:49 59.907983 74.502106 298 29984ft 449kts
15-Jan-18 06:50 59.954372 74.270729 298 29988ft 450kts
15-Jan-18 06:51 60.000123 74.036961 297 29978ft 451kts
15-Jan-18 06:52 60.045140 73.803849 297 29986ft 452kts
15-Jan-18 06:53 60.089969 73.569243 297 30000ft 451kts
15-Jan-18 06:54 60.134468 73.333384 297 30074ft 452kts
15-Jan-18 06:55 60.178568 73.096695 297 30080ft 453kts
15-Jan-18 06:56 60.222507 72.857862 296 30083ft 456kts
15-Jan-18 06:57 60.266073 72.618185 296 30086ft 457kts
15-Jan-18 06:58 60.309406 72.376700 295 30091ft 459kts
15-Jan-18 06:59 60.352548 72.133173 295 30098ft 460kts
15-Jan-18 07:00 60.395332 71.888616 295 30105ft 461kts
15-Jan-18 07:01 60.437556 71.643542 295 30120ft 462kts
15-Jan-18 07:02 60.479512 71.397447 294 30134ft 461kts
15-Jan-18 07:03 60.520846 71.151420 294 30145ft 461kts
15-Jan-18 07:04 60.562584 70.904679 294 30163ft 461kts
15-Jan-18 07:05 60.602585 70.656430 294 30178ft 462kts
15-Jan-18 07:06 60.650226 70.416036 306 30193ft 454kts
15-Jan-18 07:07 60.717760 70.199792 307 30201ft 450kts
15-Jan-18 07:08 60.783514 69.981986 307 30211ft 450kts
15-Jan-18 07:09 60.848595 69.762012 306 30217ft 450kts
15-Jan-18 07:10 60.913735 69.543049 306 30220ft 450kts
15-Jan-18 07:11 60.977393 69.321678 306 30222ft 450kts
15-Jan-18 07:12 61.033589 69.091088 290 30226ft 459kts
15-Jan-18 07:13 61.053402 68.826675 285 30223ft 470kts
15-Jan-18 07:14 61.070818 68.559621 284 30222ft 470kts
15-Jan-18 07:15 61.087058 68.291359 284 30222ft 469kts
15-Jan-18 07:16 61.102770 68.023970 283 30221ft 469kts
15-Jan-18 07:17 61.117524 67.755610 283 30222ft 468kts
15-Jan-18 07:18 61.131678 67.488305 284 30222ft 467kts
15-Jan-18 07:19 61.147635 67.221762 284 30224ft 467kts
15-Jan-18 07:20 61.161786 66.953663 283 30226ft 467kts
15-Jan-18 07:21 61.175163 66.686226 283 30229ft 467kts
15-Jan-18 07:22 61.187958 66.419230 283 30232ft 466kts
15-Jan-18 07:23 61.200261 66.151187 283 30236ft 466kts
15-Jan-18 07:24 61.211990 65.883987 283 30240ft 465kts
15-Jan-18 07:25 61.223197 65.616541 283 30245ft 464kts
15-Jan-18 07:26 61.233854 65.349547 283 30251ft 465kts
15-Jan-18 07:27 61.244844 65.082549 283 30253ft 464kts
15-Jan-18 07:28 61.254097 64.814138 282 30367ft 465kts
15-Jan-18 07:29 61.262781 64.546012 282 30396ft 465kts
15-Jan-18 07:30 61.271880 64.278329 283 30404ft 463kts
15-Jan-18 07:31 61.280660 64.010449 281 30413ft 464kts
15-Jan-18 07:32 61.288022 63.742448 281 30421ft 465kts
15-Jan-18 07:33 61.304804 63.477583 287 30428ft 458kts
15-Jan-18 07:34 61.327583 63.217440 287 30436ft 458kts
15-Jan-18 07:35 61.348233 62.955516 286 30443ft 459kts
15-Jan-18 07:36 61.368354 62.692023 286 30449ft 459kts
15-Jan-18 07:37 61.388205 62.429347 286 30456ft 458kts
15-Jan-18 07:38 61.407382 62.166594 285 30463ft 458kts
15-Jan-18 07:39 61.426769 61.903136 286 30470ft 458kts
15-Jan-18 07:40 61.447270 61.640377 285 30477ft 459kts
15-Jan-18 07:41 61.464914 61.376094 284 30482ft 461kts
15-Jan-18 07:42 61.482523 61.110513 284 30490ft 462kts
15-Jan-18 07:43 61.499579 60.843899 283 30497ft 463kts
15-Jan-18 07:44 61.517479 60.576432 284 30570ft 462kts
15-Jan-18 07:45 61.534259 60.309463 282 30578ft 463kts
15-Jan-18 07:46 61.549793 60.041988 282 30584ft 463kts
15-Jan-18 07:47 61.565060 59.773231 281 30590ft 463kts
15-Jan-18 07:48 61.579563 59.504686 281 30596ft 464kts
15-Jan-18 07:49 61.594019 59.234040 282 30602ft 466kts
15-Jan-18 07:50 61.610265 58.964102 280 30608ft 467kts
15-Jan-18 07:51 61.623270 58.692288 279 30614ft 468kts
15-Jan-18 07:52 61.636162 58.419094 279 30618ft 468kts
15-Jan-18 07:53 61.648459 58.146686 279 30624ft 468kts
15-Jan-18 07:54 61.660152 57.874093 278 30629ft 469kts
15-Jan-18 07:55 61.672765 57.600365 279 30635ft 468kts
15-Jan-18 07:56 61.685113 57.327375 278 30640ft 470kts
15-Jan-18 07:57 61.695229 57.052693 277 30645ft 471kts
15-Jan-18 07:58 61.705916 56.776956 278 30650ft 471kts
15-Jan-18 07:59 61.716473 56.501914 277 30655ft 471kts
15-Jan-18 08:00 61.726199 56.225911 277 30660ft 471kts
15-Jan-18 08:01 61.737891 55.951299 277 30686ft 470kts
15-Jan-18 08:02 61.748038 55.676251 277 30692ft 471kts
15-Jan-18 08:03 61.757285 55.399510 276 30695ft 472kts
15-Jan-18 08:04 61.765899 55.122962 276 30698ft 473kts
15-Jan-18 08:05 61.773989 54.844806 275 30697ft 473kts
15-Jan-18 08:06 61.781494 54.567260 275 30695ft 474kts
15-Jan-18 08:07 61.788435 54.289714 275 30699ft 473kts
15-Jan-18 08:08 61.794833 54.011316 274 30703ft 473kts
15-Jan-18 08:09 61.800648 53.733797 274 30707ft 474kts
15-Jan-18 08:10 61.805913 53.455553 274 30710ft 475kts
15-Jan-18 08:11 61.810642 53.175481 274 30713ft 476kts
15-Jan-18 08:12 61.814799 52.895642 273 30716ft 477kts
15-Jan-18 08:13 61.818401 52.614346 273 30718ft 477kts
15-Jan-18 08:14 61.821419 52.334011 273 30720ft 477kts
15-Jan-18 08:15 61.823866 52.053728 272 30722ft 477kts
15-Jan-18 08:16 61.825746 51.772643 272 30723ft 477kts
15-Jan-18 08:17 61.827053 51.492030 272 30724ft 478kts
15-Jan-18 08:18 61.827787 51.209708 271 30725ft 479kts
15-Jan-18 08:19 61.827944 50.927524 271 30725ft 480kts
15-Jan-18 08:20 61.827522 50.644938 270 30725ft 481kts
15-Jan-18 08:21 61.826514 50.361144 270 30725ft 481kts
15-Jan-18 08:22 61.824931 50.078754 270 30725ft 480kts
15-Jan-18 08:23 61.822770 49.796274 270 30725ft 481kts
15-Jan-18 08:24 61.820018 49.512694 269 30724ft 482kts
15-Jan-18 08:25 61.816684 49.229241 269 30724ft 483kts
15-Jan-18 08:26 61.812745 48.944162 268 30724ft 484kts
15-Jan-18 08:27 61.809055 48.659655 267 30724ft 484kts
15-Jan-18 08:28 61.803309 48.375440 267 30724ft 484kts
15-Jan-18 08:29 61.790886 48.091814 260 30724ft 484kts
15-Jan-18 08:30 61.766860 47.812384 260 30724ft 484kts
15-Jan-18 08:31 61.742865 47.531732 259 30740ft 485kts
15-Jan-18 08:32 61.724793 47.297714 260 30745ft 486kts
15-Jan-18 08:33 61.697353 46.970397 259 30748ft 487kts
15-Jan-18 08:34 61.676875 46.735925 258 30751ft 487kts
15-Jan-18 08:35 61.647629 46.409702 258 30754ft 486kts
15-Jan-18 08:36 61.626305 46.177542 258 30756ft 485kts
15-Jan-18 08:37 61.600176 45.899074 257 30758ft 484kts
15-Jan-18 08:38 61.569093 45.576100 256 30761ft 485kts
15-Jan-18 08:39 61.546274 45.344231 256 30763ft 486kts
15-Jan-18 08:40 61.518425 45.066944 255 30764ft 487kts
15-Jan-18 08:41 61.489976 44.789735 255 30766ft 487kts
15-Jan-18 08:42 61.461730 44.511837 254 30768ft 487kts
15-Jan-18 08:43 61.431609 44.236455 254 30770ft 486kts
15-Jan-18 08:44 61.401430 43.961692 254 30771ft 486kts
15-Jan-18 08:45 61.370529 43.686150 253 30765ft 487kts
15-Jan-18 08:46 61.338988 43.411289 252 30765ft 489kts
15-Jan-18 08:47 61.308645 43.134140 253 30766ft 491kts
15-Jan-18 08:48 61.276833 42.858471 252 30768ft 491kts
15-Jan-18 08:49 61.244230 42.583343 251 30769ft 490kts
15-Jan-18 08:50 61.211836 42.307590 251 30770ft 491kts
15-Jan-18 08:51 61.177611 42.034056 251 30771ft 491kts
15-Jan-18 08:52 61.144069 41.759886 253 30772ft 493kts
15-Jan-18 08:53 61.119809 41.478594 254 30773ft 496kts
15-Jan-18 08:54 61.094547 41.198346 253 30774ft 496kts
15-Jan-18 08:55 61.070247 40.916687 254 30775ft 497kts
15-Jan-18 08:56 61.044955 40.636110 253 30755ft 497kts
15-Jan-18 08:57 61.018657 40.356350 252 30741ft 497kts
15-Jan-18 08:58 60.991627 40.075922 252 30750ft 498kts
15-Jan-18 08:59 60.964052 39.796295 251 30748ft 499kts
15-Jan-18 09:00 60.935773 39.515979 251 30747ft 499kts
15-Jan-18 09:01 60.907628 39.236877 252 30746ft 499kts
15-Jan-18 09:02 60.878188 38.958570 250 30744ft 499kts
15-Jan-18 09:03 60.847730 38.679827 249 30742ft 500kts
15-Jan-18 09:04 60.818196 38.401265 250 30741ft 501kts
15-Jan-18 09:05 60.788083 38.122893 249 30739ft 502kts
15-Jan-18 09:06 60.759510 37.842223 249 30729ft 503kts
15-Jan-18 09:07 60.728142 37.564168 248 30712ft 502kts
15-Jan-18 09:08 60.695939 37.286306 247 30707ft 501kts
15-Jan-18 09:09 60.661274 37.011275 247 30689ft 501kts
15-Jan-18 09:10 60.626107 36.736454 247 30688ft 502kts
15-Jan-18 09:11 60.591888 36.459408 247 30686ft 504kts
15-Jan-18 09:12 60.556993 36.183166 246 30686ft 505kts
15-Jan-18 09:13 60.519808 35.906961 245 30684ft 506kts
15-Jan-18 09:14 60.486104 35.629873 252 30685ft 511kts
15-Jan-18 09:15 60.466422 35.343037 253 30683ft 514kts
15-Jan-18 09:16 60.445265 35.056412 252 30681ft 513kts
15-Jan-18 09:17 60.425251 34.770436 252 30680ft 514kts
15-Jan-18 09:18 60.404177 34.484065 252 30680ft 515kts
15-Jan-18 09:19 60.381002 34.197232 251 30680ft 516kts
15-Jan-18 09:20 60.357633 33.910773 251 30680ft 517kts
15-Jan-18 09:21 60.333415 33.624103 251 30680ft 517kts
15-Jan-18 09:22 60.309501 33.339159 252 30680ft 516kts
15-Jan-18 09:23 60.286551 33.054669 251 30682ft 514kts
15-Jan-18 09:24 60.260764 32.771323 250 30681ft 512kts
15-Jan-18 09:25 60.228463 32.493929 240 30678ft 503kts
15-Jan-18 09:26 60.175913 32.236416 237 30679ft 498kts
15-Jan-18 09:27 60.122378 31.977792 237 30682ft 499kts
15-Jan-18 09:28 60.069337 31.720464 237 30685ft 499kts
15-Jan-18 09:29 60.017431 31.462813 241 30684ft 501kts
15-Jan-18 09:30 59.971905 31.199240 242 30687ft 502kts
15-Jan-18 09:31 59.925476 30.938007 242 30693ft 501kts
15-Jan-18 09:32 59.880588 30.675533 242 30693ft 498kts
15-Jan-18 09:33 59.833314 30.417682 242 30693ft 497kts
15-Jan-18 09:34 59.789175 30.156241 247 30695ft 500kts
15-Jan-18 09:35 59.751181 29.890752 246 30697ft 500kts
15-Jan-18 09:36 59.712307 29.627045 247 30690ft 499kts
15-Jan-18 09:37 59.674731 29.362452 247 30684ft 496kts
15-Jan-18 09:38 59.634967 29.102332 248 30679ft 493kts
15-Jan-18 09:39 59.591709 28.846795 245 30674ft 489kts
15-Jan-18 09:40 59.547067 28.593307 247 30670ft 487kts
15-Jan-18 09:41 59.501533 28.342526 246 30657ft 486kts
15-Jan-18 09:42 59.455310 28.092231 246 30639ft 485kts
15-Jan-18 09:43 59.408212 27.844500 245 30605ft 483kts
15-Jan-18 09:44 59.359816 27.599041 245 30606ft 483kts
15-Jan-18 09:45 59.311055 27.353520 246 30607ft 482kts
15-Jan-18 09:46 59.261852 27.110058 246 30608ft 481kts
15-Jan-18 09:47 59.212361 26.867584 246 30596ft 481kts
15-Jan-18 09:48 59.164506 26.623499 246 30575ft 480kts
15-Jan-18 09:49 59.114170 26.383038 246 30571ft 479kts
15-Jan-18 09:50 59.063556 26.142455 247 30568ft 479kts
15-Jan-18 09:51 59.013164 25.902737 246 30566ft 481kts
15-Jan-18 09:52 58.961428 25.664115 247 30564ft 480kts
15-Jan-18 09:53 58.910075 25.424751 247 30564ft 481kts
15-Jan-18 09:54 58.857422 25.187087 247 30568ft 482kts
15-Jan-18 09:55 58.804224 24.948839 248 30575ft 482kts
15-Jan-18 09:56 58.750862 24.711447 247 30578ft 484kts
15-Jan-18 09:57 58.696663 24.474403 248 30586ft 485kts
15-Jan-18 09:58 58.641428 24.236925 248 30591ft 486kts
15-Jan-18 09:59 58.585781 24.000489 248 30575ft 487kts
15-Jan-18 10:00 58.531260 23.762902 248 30558ft 488kts
15-Jan-18 10:01 58.475159 23.525856 248 30537ft 488kts
15-Jan-18 10:02 58.418665 23.290434 248 30518ft 488kts
15-Jan-18 10:03 58.361660 23.055067 248 30502ft 488kts
15-Jan-18 10:04 58.304751 22.820972 247 30493ft 488kts
15-Jan-18 10:05 58.246054 22.586176 247 31641ft 494kts
15-Jan-18 10:06 58.190390 22.348143 249 33356ft 492kts
15-Jan-18 10:07 58.135159 22.111377 249 34850ft 492kts
15-Jan-18 10:08 58.080294 21.875091 249 36161ft 492kts
15-Jan-18 10:09 58.024045 21.639141 248 37351ft 491kts
15-Jan-18 10:10 57.968217 21.404588 248 38251ft 492kts
15-Jan-18 10:11 57.910157 21.166076 248 38243ft 508kts
15-Jan-18 10:12 57.850175 20.922480 247 38216ft 517kts
15-Jan-18 10:13 57.790353 20.677713 248 38204ft 516kts
15-Jan-18 10:14 57.729487 20.434022 247 38189ft 515kts
15-Jan-18 10:15 57.668102 20.192526 247 38174ft 514kts
15-Jan-18 10:16 57.606003 19.952279 246 38133ft 514kts
15-Jan-18 10:17 57.543090 19.712429 246 38075ft 514kts
15-Jan-18 10:18 57.481397 19.473019 247 38063ft 514kts
15-Jan-18 10:19 57.418779 19.234027 246 38043ft 513kts
15-Jan-18 10:20 57.355715 18.997409 246 38047ft 512kts
15-Jan-18 10:21 57.292241 18.762078 246 38046ft 511kts
15-Jan-18 10:22 57.228243 18.527210 245 38041ft 510kts
15-Jan-18 10:23 57.164136 18.294333 245 38013ft 510kts
15-Jan-18 10:24 57.099398 18.061547 245 37998ft 510kts
15-Jan-18 10:25 57.034601 17.830881 245 37988ft 506kts
15-Jan-18 10:26 56.969673 17.602031 244 37977ft 506kts
15-Jan-18 10:27 56.904064 17.373093 244 37964ft 506kts
15-Jan-18 10:28 56.838376 17.146079 244 37953ft 505kts
15-Jan-18 10:29 56.772404 16.920339 243 37943ft 504kts
15-Jan-18 10:30 56.705932 16.695018 243 37936ft 503kts
15-Jan-18 10:31 56.639354 16.471565 243 37934ft 503kts
15-Jan-18 10:32 56.572193 16.248257 243 37930ft 503kts
15-Jan-18 10:33 56.504870 16.026510 243 37917ft 503kts
15-Jan-18 10:34 56.437246 15.805784 242 37894ft 501kts
15-Jan-18 10:35 56.369066 15.585424 242 37879ft 501kts
15-Jan-18 10:36 56.300861 15.366939 242 37875ft 500kts
15-Jan-18 10:37 56.232781 15.148828 241 37845ft 498kts
15-Jan-18 10:38 56.163907 14.933757 241 37834ft 496kts
15-Jan-18 10:39 56.089332 14.726251 235 37811ft 496kts
15-Jan-18 10:40 56.007415 14.527003 235 37781ft 495kts
15-Jan-18 10:41 55.927217 14.327167 235 37763ft 496kts
15-Jan-18 10:42 55.859446 14.162233 235 37758ft 495kts
15-Jan-18 10:43 55.764043 13.931970 235 37750ft 495kts
15-Jan-18 10:44 55.683319 13.734730 235 37731ft 495kts
15-Jan-18 10:45 55.614971 13.570978 235 37710ft 495kts
15-Jan-18 10:46 55.519732 13.342840 236 37698ft 495kts
15-Jan-18 10:47 55.453972 13.177609 236 37697ft 494kts
15-Jan-18 10:48 55.374203 12.980108 236 37691ft 493kts
15-Jan-18 10:49 55.294702 12.784447 235 37688ft 492kts
15-Jan-18 10:50 55.214829 12.588792 235 37657ft 492kts
15-Jan-18 10:51 55.135196 12.394587 235 37649ft 491kts
15-Jan-18 10:52 55.054713 12.202122 235 37642ft 491kts
15-Jan-18 10:53 54.973919 12.009246 235 37623ft 492kts
15-Jan-18 10:54 54.893217 11.818138 234 37625ft 490kts
15-Jan-18 10:55 54.811988 11.628006 234 37617ft 491kts
15-Jan-18 10:56 54.730486 11.437444 236 37616ft 491kts
15-Jan-18 10:57 54.666272 11.230150 243 37617ft 489kts
15-Jan-18 10:58 54.603330 11.021279 243 37615ft 489kts
15-Jan-18 10:59 54.540289 10.813976 242 37633ft 488kts
15-Jan-18 11:00 54.476633 10.607707 242 37610ft 488kts
15-Jan-18 11:01 54.412606 10.401501 243 37625ft 488kts
15-Jan-18 11:02 54.349527 10.195479 242 37637ft 488kts
15-Jan-18 11:03 54.285085 9.989894 242 37620ft 489kts
15-Jan-18 11:04 54.220872 9.785261 242 37551ft 489kts
15-Jan-18 11:05 54.155598 9.582128 241 37513ft 488kts
15-Jan-18 11:06 54.089972 9.379172 241 37487ft 487kts
15-Jan-18 11:07 54.024092 9.177942 241 37474ft 487kts
15-Jan-18 11:08 53.957917 8.977129 242 37454ft 475kts
15-Jan-18 11:09 53.895421 8.784562 241 37440ft 462kts
15-Jan-18 11:10 53.832576 8.595272 241 37432ft 460kts
15-Jan-18 11:11 53.770016 8.406810 241 37430ft 459kts
15-Jan-18 11:12 53.706631 8.219628 241 37417ft 459kts
15-Jan-18 11:13 53.642644 8.032522 241 37396ft 459kts
15-Jan-18 11:14 53.578700 7.846623 240 37379ft 459kts
15-Jan-18 11:15 53.514235 7.660847 240 37373ft 459kts
15-Jan-18 11:16 53.450439 7.475104 241 37375ft 460kts
15-Jan-18 11:17 53.385950 7.289940 240 37363ft 461kts
15-Jan-18 11:18 53.320617 7.105608 240 37107ft 448kts
15-Jan-18 11:19 53.258171 6.928636 240 35207ft 457kts
15-Jan-18 11:20 53.193366 6.748400 238 32063ft 447kts
15-Jan-18 11:21 53.119112 6.586996 225 28786ft 433kts
15-Jan-18 11:22 53.035805 6.447897 225 25907ft 415kts
15-Jan-18 11:23 52.956590 6.314055 225 23348ft 395kts
15-Jan-18 11:24 52.878916 6.180491 225 20752ft 401kts
15-Jan-18 11:25 52.802603 6.052499 225 18175ft 382kts
15-Jan-18 11:26 52.729079 5.929913 225 15727ft 371kts
15-Jan-18 11:27 52.656633 5.808325 226 13852ft 369kts
15-Jan-18 11:28 52.586461 5.692713 227 12493ft 330kts
15-Jan-18 11:29 52.526373 5.593988 228 11985ft 282kts
15-Jan-18 11:30 52.507580 5.478214 263 10797ft 262kts
15-Jan-18 11:31 52.503535 5.361794 264 9746ft 245kts
15-Jan-18 11:32 52.499555 5.251974 264 8453ft 238kts
15-Jan-18 11:33 52.496571 5.147077 263 7442ft 212kts
15-Jan-18 11:34 52.493095 5.056209 262 6124ft 184kts
15-Jan-18 11:35 52.489780 4.974405 262 4530ft 183kts
15-Jan-18 11:36 52.486469 4.894411 260 2735ft 161kts
15-Jan-18 11:37 52.483149 4.815338 260 2027ft 192kts
15-Jan-18 11:38 52.477806 4.739010 237 2015ft 146kts
15-Jan-18 11:39 52.441399 4.718783 186 1603ft 134kts
15-Jan-18 11:40 52.404652 4.715913 183 877ft 133kts
15-Jan-18 11:41 52.368516 4.712661 184 203ft 128kts
15-Jan-18 11:42 52.343895 4.710702 159 18ft 42kts
15-Jan-18 11:43 52.336027 4.712385 183 18ft 22kts
15-Jan-18 11:44 52.331441 4.715272 77 18ft 18kts
15-Jan-18 11:45 52.328366 4.722188 131 18ft 29kts
15-Jan-18 11:46 52.321337 4.732885 134 18ft 22kts
15-Jan-18 11:47 52.320326 4.741256 91 18ft 20kts
15-Jan-18 11:48 52.316874 4.743144 183 18ft 26kts
15-Jan-18 11:49 52.314067 4.746877 85 18ft 17kts
15-Jan-18 11:50 52.314348 4.755859 82 18ft 22kts
15-Jan-18 11:51 52.314542 4.763428 110 18ft 6kts
15-Jan-18 11:52 52.313565 4.764318 161 18ft 0kts
15-Jan-18 11:53 52.314757 4.767187 79 18ft 22kts
15-Jan-18 11:54 52.312360 4.770412 215 18ft 16kts
15-Jan-18 11:55 52.311618 4.767887 303 18ft 3kts
15-Jan-18 11:56 52.311647 4.767815 303 18ft 0kts
15-Jan-18 11:57 52.311647 4.767815 303 18ft 0kts

Navigation Log

Ident Type
Flight plan parsing failed, navigation log unavailable